Time;durP1;ratioP1;P1;durP2;ratioP2;P2;SDS_P1;SDS_P2;PMS_P1;PMS_P2;Temp;Humidity;BMP_temperature;BMP_pressure;BME280_temperature;BME280_humidity;BME280_pressure;Samples;Min_cycle;Max_cycle;Signal;HPM_P1;HPM_P2
2023/08/15 00:02:19;;;;;;;114.50;56.70;;;20.80;84.70;;;;;;4978928;28;96247;-53
2023/08/15 00:04:44;;;;;;;115.32;57.00;;;20.80;85.00;;;;;;4973388;28;96923;-55
2023/08/15 00:07:10;;;;;;;115.45;57.05;;;20.80;85.00;;;;;;4983194;28;96030;-55
2023/08/15 00:09:36;;;;;;;114.25;56.33;;;20.80;84.90;;;;;;4976237;28;96337;-55
2023/08/15 00:12:01;;;;;;;114.40;56.40;;;20.70;85.00;;;;;;4978527;28;95637;-54
2023/08/15 00:14:27;;;;;;;116.38;56.75;;;20.70;85.20;;;;;;4982403;28;95343;-54
2023/08/15 00:16:53;;;;;;;116.20;56.88;;;20.70;85.00;;;;;;4981099;28;94965;-53
2023/08/15 00:19:18;;;;;;;116.03;56.65;;;20.70;85.10;;;;;;4981011;28;95643;-50
2023/08/15 00:21:44;;;;;;;115.55;56.65;;;20.60;85.10;;;;;;4979097;28;95824;-53
2023/08/15 00:24:10;;;;;;;116.25;57.05;;;20.60;85.30;;;;;;4980822;28;95153;-54
2023/08/15 00:26:35;;;;;;;115.97;56.50;;;20.60;84.90;;;;;;4990382;28;94500;-53
2023/08/15 00:29:01;;;;;;;114.63;56.58;;;20.60;85.10;;;;;;4979683;28;97131;-52
2023/08/15 00:31:26;;;;;;;114.95;56.20;;;20.50;85.30;;;;;;4980186;28;99325;-51
2023/08/15 00:33:52;;;;;;;114.28;56.67;;;20.50;85.40;;;;;;4981653;28;96394;-54
2023/08/15 00:36:18;;;;;;;115.28;56.50;;;20.50;86.00;;;;;;4975827;28;96627;-55
2023/08/15 00:38:43;;;;;;;114.43;56.42;;;20.50;85.60;;;;;;4986250;28;97146;-56
2023/08/15 00:41:09;;;;;;;115.30;56.78;;;20.40;85.50;;;;;;4987818;28;98697;-56
2023/08/15 00:43:35;;;;;;;115.45;57.15;;;20.40;85.60;;;;;;4986921;28;95816;-55
2023/08/15 00:46:03;;;;;;;116.20;56.67;;;20.40;85.80;;;;;;4989424;28;95705;-53
2023/08/15 00:48:30;;;;;;;115.22;57.10;;;20.40;85.80;;;;;;4986495;28;94739;-53
2023/08/15 00:50:56;;;;;;;116.35;56.75;;;20.40;86.10;;;;;;4958055;28;97841;-54
2023/08/15 00:53:22;;;;;;;114.60;56.78;;;20.30;86.10;;;;;;4985490;28;95649;-56
2023/08/15 00:55:48;;;;;;;115.22;56.80;;;20.30;86.10;;;;;;4982598;28;100050;-55
2023/08/15 00:58:15;;;;;;;114.28;56.60;;;20.30;85.90;;;;;;4983514;28;96322;-53
2023/08/15 01:00:42;;;;;;;114.68;56.63;;;20.30;86.00;;;;;;4979665;28;97190;-54
2023/08/15 01:03:08;;;;;;;115.32;56.47;;;20.30;86.00;;;;;;4986601;28;95743;-54
2023/08/15 01:05:34;;;;;;;115.32;56.63;;;20.30;86.20;;;;;;4987402;28;98757;-52
2023/08/15 01:08:00;;;;;;;116.50;56.90;;;20.30;86.30;;;;;;4980945;28;96165;-52
2023/08/15 01:10:26;;;;;;;115.20;56.45;;;20.30;86.30;;;;;;4986596;28;95272;-54
2023/08/15 01:13:22;;;;;;;114.13;55.78;;;20.20;86.40;;;;;;4981968;28;95674;-54
2023/08/15 01:15:51;;;;;;;113.43;56.15;;;20.30;86.40;;;;;;4982433;28;96706;-55
2023/08/15 01:18:34;;;;;;;115.85;56.85;;;20.20;86.20;;;;;;4981287;28;95749;-55
2023/08/15 01:21:01;;;;;;;113.68;56.45;;;20.20;86.10;;;;;;4984989;28;97323;-53
2023/08/15 01:23:53;;;;;;;114.45;56.40;;;20.20;86.00;;;;;;4984311;28;95884;-54
2023/08/15 01:26:19;;;;;;;113.50;56.08;;;20.20;85.70;;;;;;4974190;28;95597;-54
2023/08/15 01:28:44;;;;;;;115.18;56.72;;;20.20;85.90;;;;;;4983757;28;99242;-55
2023/08/15 01:31:35;;;;;;;117.10;56.33;;;20.20;86.20;;;;;;4961668;28;95894;-55
2023/08/15 01:34:22;;;;;;;113.25;56.15;;;20.20;86.20;;;;;;4976499;28;96983;-53
2023/08/15 01:36:56;;;;;;;114.10;56.45;;;20.20;85.90;;;;;;4981605;28;99410;-53
2023/08/15 01:39:26;;;;;;;114.53;56.40;;;20.20;86.20;;;;;;4982598;28;101007;-54
2023/08/15 01:41:53;;;;;;;113.43;56.33;;;20.20;86.40;;;;;;4983975;28;95184;-54
2023/08/15 01:44:20;;;;;;;113.70;56.00;;;20.20;87.00;;;;;;4988642;28;95240;-53
2023/08/15 01:46:46;;;;;;;112.30;55.88;;;20.10;86.20;;;;;;4987669;28;95314;-53
2023/08/15 01:49:13;;;;;;;113.80;55.97;;;20.10;86.10;;;;;;4980734;28;98334;-50
2023/08/15 01:51:39;;;;;;;112.70;56.30;;;20.10;86.20;;;;;;4964269;28;98665;-54
2023/08/15 01:54:04;;;;;;;113.22;56.10;;;20.10;86.00;;;;;;4983368;28;96830;-53
2023/08/15 01:56:30;;;;;;;112.82;56.00;;;20.10;86.10;;;;;;4983569;28;95574;-51
2023/08/15 01:58:56;;;;;;;115.15;56.53;;;20.00;86.40;;;;;;4978931;28;94844;-52
2023/08/15 02:01:21;;;;;;;113.85;56.30;;;20.10;86.60;;;;;;4982358;28;95743;-52
2023/08/15 02:03:47;;;;;;;113.20;56.13;;;20.00;86.10;;;;;;4984924;28;97665;-52
2023/08/15 02:06:12;;;;;;;116.22;56.33;;;20.00;86.30;;;;;;4985333;28;94456;-53
2023/08/15 02:08:38;;;;;;;114.78;56.15;;;20.00;86.50;;;;;;4977387;28;95389;-52
2023/08/15 02:11:03;;;;;;;114.30;56.20;;;19.90;86.30;;;;;;4980750;28;95302;-51
2023/08/15 02:13:32;;;;;;;114.35;56.60;;;20.00;86.40;;;;;;4981211;28;96851;-52
2023/08/15 02:15:57;;;;;;;115.38;56.40;;;19.90;86.40;;;;;;4979004;28;94844;-53
2023/08/15 02:18:28;;;;;;;113.47;56.35;;;19.90;86.60;;;;;;4984693;28;97291;-53
2023/08/15 02:20:54;;;;;;;112.43;55.63;;;19.90;86.80;;;;;;4982834;28;95410;-53
2023/08/15 02:23:20;;;;;;;113.30;56.20;;;19.80;86.60;;;;;;4985927;28;95328;-52
2023/08/15 02:25:46;;;;;;;112.97;55.83;;;19.80;86.60;;;;;;4981070;28;95098;-51
2023/08/15 02:28:11;;;;;;;113.97;56.30;;;19.80;86.90;;;;;;4983607;28;95232;-52
2023/08/15 02:30:37;;;;;;;114.57;56.50;;;19.80;86.80;;;;;;4982276;28;97885;-52
2023/08/15 02:33:06;;;;;;;114.53;56.17;;;19.70;86.80;;;;;;4984078;28;96922;-52
2023/08/15 02:35:32;;;;;;;111.65;55.55;;;19.80;86.60;;;;;;4983689;28;96368;-51
2023/08/15 02:37:58;;;;;;;112.60;56.20;;;19.70;86.90;;;;;;4981851;28;96636;-49
2023/08/15 02:40:28;;;;;;;114.30;56.10;;;19.80;87.00;;;;;;4981748;28;97092;-51
2023/08/15 02:42:53;;;;;;;114.35;56.10;;;19.70;86.90;;;;;;4989640;28;95436;-52
2023/08/15 02:45:19;;;;;;;113.22;56.05;;;19.70;87.10;;;;;;4962147;28;96270;-53
2023/08/15 02:47:45;;;;;;;113.35;55.97;;;19.70;87.20;;;;;;4983454;28;95171;-52
2023/08/15 02:50:15;;;;;;;113.68;56.05;;;19.60;87.30;;;;;;4973948;28;95846;-52
2023/08/15 02:52:40;;;;;;;113.25;55.72;;;19.60;87.30;;;;;;4981287;28;94996;-52
2023/08/15 02:55:06;;;;;;;113.25;56.17;;;19.60;87.20;;;;;;4976309;28;94067;-52
2023/08/15 02:57:32;;;;;;;114.63;55.95;;;19.60;87.40;;;;;;4984991;28;95247;-52
2023/08/15 02:59:58;;;;;;;113.72;55.95;;;19.60;87.50;;;;;;4975326;28;96284;-52
2023/08/15 03:02:23;;;;;;;112.80;56.00;;;19.60;87.20;;;;;;4990328;28;96264;-51
2023/08/15 03:04:49;;;;;;;116.07;55.97;;;19.50;87.20;;;;;;4979321;28;94845;-51
2023/08/15 03:07:15;;;;;;;113.03;56.10;;;19.50;87.30;;;;;;4982978;28;95384;-53
2023/08/15 03:09:40;;;;;;;112.40;55.88;;;19.50;87.10;;;;;;4982706;28;95517;-51
2023/08/15 03:12:07;;;;;;;112.80;56.20;;;19.40;87.30;;;;;;4984007;28;95191;-51
2023/08/15 03:14:32;;;;;;;113.05;55.90;;;19.50;87.30;;;;;;4988522;28;94861;-53
2023/08/15 03:16:58;;;;;;;112.55;56.08;;;19.40;87.40;;;;;;4983966;28;97476;-53
2023/08/15 03:19:24;;;;;;;113.97;55.80;;;19.40;87.40;;;;;;4982642;28;95813;-53
2023/08/15 03:21:49;;;;;;;112.70;56.28;;;19.40;87.20;;;;;;4978632;28;96728;-52
2023/08/15 03:24:15;;;;;;;112.47;55.92;;;19.40;87.40;;;;;;4982641;28;96563;-51
2023/08/15 03:26:42;;;;;;;112.80;56.05;;;19.40;87.50;;;;;;4962381;28;98422;-52
2023/08/15 03:29:08;;;;;;;112.70;55.95;;;19.40;87.80;;;;;;4975103;28;94996;-52
2023/08/15 03:31:33;;;;;;;112.38;55.85;;;19.40;88.20;;;;;;4983106;28;98614;-52
2023/08/15 03:33:59;;;;;;;111.03;55.63;;;19.30;87.50;;;;;;4982884;28;94939;-52
2023/08/15 03:36:25;;;;;;;114.43;56.20;;;19.30;87.50;;;;;;4982555;28;96132;-51
2023/08/15 03:38:52;;;;;;;112.05;56.10;;;19.30;87.60;;;;;;4976398;28;95753;-53
2023/08/15 03:41:18;;;;;;;112.20;55.85;;;19.30;87.70;;;;;;4979383;28;95653;-52
2023/08/15 03:43:43;;;;;;;113.80;55.80;;;19.30;88.00;;;;;;4984225;28;98568;-52
2023/08/15 03:46:09;;;;;;;112.32;55.97;;;19.20;87.80;;;;;;4977961;28;95218;-53
2023/08/15 03:48:35;;;;;;;112.55;56.15;;;19.20;87.80;;;;;;4983578;28;95882;-51
2023/08/15 03:51:01;;;;;;;111.60;55.72;;;19.20;87.50;;;;;;4972746;28;96394;-50
2023/08/15 03:53:27;;;;;;;112.75;56.15;;;19.20;87.60;;;;;;4985992;28;94807;-53
2023/08/15 03:55:54;;;;;;;112.43;55.40;;;19.20;87.40;;;;;;4977968;28;94876;-52
2023/08/15 03:58:20;;;;;;;112.05;55.70;;;19.20;87.60;;;;;;4984132;28;95952;-51
2023/08/15 04:00:47;;;;;;;113.80;56.13;;;19.20;87.80;;;;;;4980792;28;96293;-52
2023/08/15 04:03:13;;;;;;;113.10;55.67;;;19.20;87.50;;;;;;4983587;28;96803;-53
2023/08/15 04:05:39;;;;;;;113.00;55.72;;;19.20;88.00;;;;;;4987569;28;95705;-56
2023/08/15 04:08:05;;;;;;;111.47;55.80;;;19.20;87.70;;;;;;4980746;28;95820;-53
2023/08/15 04:10:30;;;;;;;111.88;55.55;;;19.20;88.00;;;;;;4980467;28;96989;-55
2023/08/15 04:12:56;;;;;;;112.13;55.47;;;19.20;87.80;;;;;;4988607;28;99497;-56
2023/08/15 04:15:22;;;;;;;112.65;55.83;;;19.20;87.80;;;;;;4978949;28;96792;-52
2023/08/15 04:17:47;;;;;;;112.28;56.03;;;19.20;87.80;;;;;;4982809;28;95929;-53
2023/08/15 04:20:13;;;;;;;112.35;55.80;;;19.20;87.70;;;;;;4979644;28;95800;-56
2023/08/15 04:22:39;;;;;;;112.95;56.00;;;19.20;87.50;;;;;;4987011;28;96681;-54
2023/08/15 04:25:07;;;;;;;111.85;55.83;;;19.20;88.00;;;;;;4973503;28;95956;-53
2023/08/15 04:27:32;;;;;;;113.47;56.03;;;19.20;87.80;;;;;;4983103;28;99908;-54
2023/08/15 04:29:58;;;;;;;113.50;55.83;;;19.20;89.00;;;;;;4976333;28;95598;-55
2023/08/15 04:32:24;;;;;;;113.20;55.92;;;19.20;88.00;;;;;;4984185;28;95047;-54
2023/08/15 04:34:49;;;;;;;111.72;56.05;;;19.20;88.00;;;;;;4962297;28;96475;-54
2023/08/15 04:37:15;;;;;;;111.20;55.67;;;19.20;87.90;;;;;;4983373;28;96207;-56
2023/08/15 04:39:40;;;;;;;111.63;55.85;;;19.20;87.10;;;;;;4978246;28;97903;-55
2023/08/15 04:42:06;;;;;;;110.63;55.63;;;19.20;87.10;;;;;;4983456;28;95431;-52
2023/08/15 04:44:32;;;;;;;112.93;56.22;;;19.30;87.50;;;;;;4982460;28;100777;-54
2023/08/15 04:46:57;;;;;;;111.15;55.63;;;19.30;89.00;;;;;;4982447;28;96589;-52
2023/08/15 04:49:23;;;;;;;113.18;55.67;;;19.30;87.00;;;;;;4964732;28;96178;-55
2023/08/15 04:51:48;;;;;;;112.40;56.15;;;19.30;86.80;;;;;;4980922;28;97693;-55
2023/08/15 04:54:14;;;;;;;113.43;55.90;;;19.30;87.30;;;;;;4981183;28;97140;-51
2023/08/15 04:56:39;;;;;;;113.43;56.08;;;19.30;87.50;;;;;;4977681;28;101037;-54
2023/08/15 04:59:05;;;;;;;112.38;56.08;;;19.30;87.30;;;;;;4985927;28;99230;-56
2023/08/15 05:01:31;;;;;;;112.75;56.20;;;19.30;87.10;;;;;;4982753;28;97724;-52
2023/08/15 05:03:57;;;;;;;113.43;55.97;;;19.30;87.30;;;;;;4979213;28;97761;-52
2023/08/15 05:06:22;;;;;;;111.53;55.70;;;19.40;87.40;;;;;;4961062;28;99256;-53
2023/08/15 05:08:48;;;;;;;111.93;55.80;;;19.40;87.20;;;;;;4978007;28;99677;-51
2023/08/15 05:11:13;;;;;;;112.38;55.60;;;19.40;87.20;;;;;;4982479;28;94808;-51
2023/08/15 05:13:39;;;;;;;112.28;56.17;;;19.40;87.40;;;;;;4985965;28;95880;-52
2023/08/15 05:16:05;;;;;;;111.03;55.85;;;19.40;87.30;;;;;;4985330;28;96271;-52
2023/08/15 05:18:30;;;;;;;111.53;55.70;;;19.40;86.90;;;;;;4980580;28;97842;-53
2023/08/15 05:20:56;;;;;;;112.68;55.88;;;19.50;87.30;;;;;;4990242;28;96372;-53
2023/08/15 05:23:21;;;;;;;113.28;55.97;;;19.50;87.50;;;;;;4983419;28;96481;-54
2023/08/15 05:25:47;;;;;;;111.68;55.83;;;19.50;87.70;;;;;;4978181;28;97684;-53
2023/08/15 05:28:13;;;;;;;111.68;55.97;;;19.50;86.80;;;;;;4982881;28;97067;-53
2023/08/15 05:30:39;;;;;;;112.22;56.08;;;19.50;87.20;;;;;;4981096;28;95295;-52
2023/08/15 05:33:04;;;;;;;111.50;55.75;;;19.60;87.50;;;;;;4982982;28;95103;-53
2023/08/15 05:35:31;;;;;;;113.97;56.08;;;19.60;86.30;;;;;;4981913;28;95014;-53
2023/08/15 05:37:56;;;;;;;112.03;55.92;;;19.60;86.40;;;;;;4987233;28;95035;-53
2023/08/15 05:40:22;;;;;;;111.72;56.05;;;19.60;86.20;;;;;;4982764;28;95531;-53
2023/08/15 05:42:48;;;;;;;111.82;56.13;;;19.60;86.70;;;;;;4988592;28;94753;-54
2023/08/15 05:45:32;;;;;;;111.25;55.70;;;19.60;85.70;;;;;;4982966;28;94720;-54
2023/08/15 05:47:58;;;;;;;114.13;56.00;;;19.70;86.30;;;;;;4981908;28;96547;-54
2023/08/15 05:50:24;;;;;;;111.65;55.97;;;19.70;85.90;;;;;;4981524;28;96801;-50
2023/08/15 05:52:50;;;;;;;112.70;56.08;;;19.70;86.40;;;;;;4979836;28;96569;-53
2023/08/15 05:55:15;;;;;;;112.30;55.72;;;19.70;87.00;;;;;;4982300;28;95941;-54
2023/08/15 05:57:41;;;;;;;112.35;56.03;;;19.80;86.40;;;;;;4981867;28;96617;-53
2023/08/15 06:00:08;;;;;;;112.22;56.00;;;19.80;86.20;;;;;;4982233;28;98766;-53
2023/08/15 06:02:36;;;;;;;112.63;55.83;;;19.80;86.00;;;;;;4988223;28;95518;-50
2023/08/15 06:05:02;;;;;;;112.68;56.00;;;19.80;86.40;;;;;;4982718;28;96179;-54
2023/08/15 06:07:28;;;;;;;112.30;55.92;;;19.90;85.80;;;;;;4985037;28;97541;-54
2023/08/15 06:09:54;;;;;;;113.25;55.92;;;19.90;86.10;;;;;;4980183;28;94201;-53
2023/08/15 06:12:19;;;;;;;114.25;56.20;;;19.90;85.30;;;;;;4987136;28;95622;-52
2023/08/15 06:14:45;;;;;;;112.50;56.22;;;19.90;85.20;;;;;;4982413;28;97396;-53
2023/08/15 06:17:12;;;;;;;111.88;55.88;;;20.00;85.40;;;;;;4976053;28;98743;-52
2023/08/15 06:19:38;;;;;;;112.20;56.03;;;20.00;85.70;;;;;;4985662;28;96141;-52
2023/08/15 06:22:04;;;;;;;113.22;56.20;;;20.00;85.10;;;;;;4977040;28;95638;-52
2023/08/15 06:24:29;;;;;;;113.03;55.97;;;20.00;84.60;;;;;;4983022;28;97762;-57
2023/08/15 06:26:55;;;;;;;112.80;56.05;;;20.00;84.60;;;;;;4979718;28;96870;-55
2023/08/15 06:29:20;;;;;;;112.13;56.10;;;20.10;85.20;;;;;;4982186;28;97100;-55
2023/08/15 06:31:46;;;;;;;113.88;56.08;;;20.10;86.70;;;;;;4981427;28;95815;-54
2023/08/15 06:34:12;;;;;;;114.43;56.28;;;20.10;85.50;;;;;;4983331;28;95578;-57
2023/08/15 06:36:37;;;;;;;113.22;56.22;;;20.10;84.40;;;;;;4984186;28;96933;-57
2023/08/15 06:39:03;;;;;;;112.90;56.30;;;20.10;86.30;;;;;;4978814;28;96075;-56
2023/08/15 06:41:30;;;;;;;112.72;56.03;;;20.20;84.90;;;;;;4982312;28;99151;-56
2023/08/15 06:43:56;;;;;;;113.68;56.65;;;20.30;84.70;;;;;;4987213;28;97086;-57
2023/08/15 06:46:22;;;;;;;113.40;56.35;;;20.30;86.30;;;;;;4986073;28;99148;-57
2023/08/15 06:48:47;;;;;;;112.60;56.35;;;20.40;85.10;;;;;;4978145;28;96009;-56
2023/08/15 06:51:13;;;;;;;113.57;56.40;;;20.40;86.10;;;;;;4974191;28;95977;-56
2023/08/15 06:53:41;;;;;;;113.07;56.35;;;20.50;85.60;;;;;;4981089;28;97851;-55
2023/08/15 06:56:07;;;;;;;115.05;56.72;;;20.50;84.20;;;;;;4975136;28;97422;-55
2023/08/15 06:58:33;;;;;;;114.07;56.17;;;20.60;85.80;;;;;;4983463;28;94956;-55
2023/08/15 07:00:59;;;;;;;114.85;56.45;;;20.60;86.90;;;;;;4983905;28;95401;-57
2023/08/15 07:03:24;;;;;;;113.40;56.58;;;20.70;84.30;;;;;;4974894;28;100353;-54
2023/08/15 07:05:50;;;;;;;114.75;56.03;;;20.70;88.70;;;;;;4975153;28;99695;-56
2023/08/15 07:08:17;;;;;;;113.72;56.10;;;20.80;85.40;;;;;;4978442;28;95218;-56
2023/08/15 07:10:43;;;;;;;113.28;56.35;;;20.80;84.90;;;;;;4977649;28;95860;-55
2023/08/15 07:13:08;;;;;;;112.85;56.15;;;20.80;86.00;;;;;;4977845;28;95730;-56
2023/08/15 07:15:34;;;;;;;114.22;56.38;;;20.90;83.90;;;;;;4979986;28;97362;-53
2023/08/15 07:18:00;;;;;;;113.20;56.17;;;20.90;86.60;;;;;;4979427;28;95810;-54
2023/08/15 07:20:26;;;;;;;113.32;56.33;;;20.90;86.70;;;;;;4977348;28;97087;-56
2023/08/15 07:22:51;;;;;;;112.80;56.20;;;21.00;84.80;;;;;;4979465;28;97720;-57
2023/08/15 07:25:17;;;;;;;114.38;56.80;;;21.00;87.10;;;;;;4970367;28;96869;-57
2023/08/15 07:27:42;;;;;;;114.45;56.53;;;21.10;84.60;;;;;;4978333;28;96590;-56
2023/08/15 07:30:11;;;;;;;115.78;56.67;;;21.20;87.20;;;;;;4976102;28;97267;-57
2023/08/15 07:32:37;;;;;;;114.53;56.58;;;21.30;87.00;;;;;;4980386;28;95831;-55
2023/08/15 07:35:04;;;;;;;116.07;56.80;;;21.40;87.40;;;;;;4985092;28;95059;-58
2023/08/15 07:37:30;;;;;;;118.35;56.67;;;21.50;86.70;;;;;;4982100;28;95316;-53
2023/08/15 07:39:58;;;;;;;117.88;57.47;;;21.50;86.40;;;;;;4981002;28;100296;-57
2023/08/15 07:42:24;;;;;;;115.90;56.63;;;21.50;86.80;;;;;;4975530;28;95988;-54
2023/08/15 07:44:50;;;;;;;118.15;56.95;;;21.50;85.30;;;;;;4976315;28;96480;-55
2023/08/15 07:47:16;;;;;;;115.05;56.75;;;21.50;84.90;;;;;;4979009;28;95831;-58
2023/08/15 07:49:41;;;;;;;117.13;56.85;;;21.60;84.60;;;;;;4972245;28;101212;-52
2023/08/15 07:52:07;;;;;;;114.95;56.67;;;21.60;84.50;;;;;;4974905;28;97429;-53
2023/08/15 07:54:32;;;;;;;115.15;56.78;;;21.70;83.60;;;;;;4973616;28;100518;-56
2023/08/15 07:56:58;;;;;;;116.57;56.80;;;21.70;83.40;;;;;;4980995;28;97153;-55
2023/08/15 07:59:24;;;;;;;117.03;57.08;;;21.70;83.10;;;;;;4981047;28;95677;-55
2023/08/15 08:01:49;;;;;;;116.80;56.75;;;21.80;82.80;;;;;;4984337;28;95130;-57
2023/08/15 08:04:19;;;;;;;116.53;57.17;;;21.80;82.80;;;;;;4986062;28;95443;-58
2023/08/15 08:06:44;;;;;;;117.40;57.30;;;21.80;82.80;;;;;;4976161;28;98451;-56
2023/08/15 08:09:10;;;;;;;117.00;56.85;;;21.80;82.00;;;;;;4974277;28;95320;-55
2023/08/15 08:11:36;;;;;;;118.55;57.65;;;21.90;81.70;;;;;;4974375;28;95282;-55
2023/08/15 08:14:03;;;;;;;126.07;59.30;;;21.90;82.30;;;;;;4981997;28;95777;-57
2023/08/15 08:16:29;;;;;;;119.75;57.72;;;22.00;82.20;;;;;;4974106;28;95545;-55
2023/08/15 08:18:54;;;;;;;119.45;58.08;;;21.90;82.20;;;;;;4948351;28;100724;-55
2023/08/15 08:21:20;;;;;;;121.57;57.92;;;21.90;82.20;;;;;;4952786;28;96046;-51
2023/08/15 08:23:46;;;;;;;121.32;58.35;;;21.90;81.70;;;;;;4975548;28;95528;-58
2023/08/15 08:26:11;;;;;;;123.88;58.92;;;22.00;81.70;;;;;;4976409;28;99498;-53
2023/08/15 08:28:37;;;;;;;121.38;58.90;;;22.00;81.60;;;;;;4984946;28;95911;-54
2023/08/15 08:31:03;;;;;;;127.18;60.83;;;22.00;80.60;;;;;;4969400;28;100605;-54
2023/08/15 08:33:28;;;;;;;127.53;59.75;;;22.00;82.40;;;;;;4972999;28;95021;-55
2023/08/15 08:35:54;;;;;;;136.32;61.15;;;22.00;82.00;;;;;;4983797;28;94832;-52
2023/08/15 08:38:20;;;;;;;126.07;58.83;;;22.00;82.40;;;;;;4981636;28;96343;-56
2023/08/15 08:40:47;;;;;;;127.38;59.72;;;22.00;80.70;;;;;;4976969;28;101935;-56
2023/08/15 08:43:15;;;;;;;137.32;61.50;;;22.10;81.50;;;;;;4987750;28;95698;-53
2023/08/15 08:45:47;;;;;;;124.25;58.63;;;22.20;82.70;;;;;;4965898;28;95211;-51
2023/08/15 08:48:13;;;;;;;122.60;58.83;;;22.30;79.40;;;;;;4981618;28;94836;-52
2023/08/15 08:50:39;;;;;;;121.07;58.17;;;22.30;79.60;;;;;;4964097;28;97509;-51
2023/08/15 08:53:05;;;;;;;122.95;58.67;;;22.30;78.80;;;;;;4972700;28;96364;-51
2023/08/15 08:55:33;;;;;;;120.65;58.80;;;22.40;79.00;;;;;;4964560;28;95851;-52
2023/08/15 08:58:02;;;;;;;120.80;58.75;;;22.40;79.20;;;;;;4962189;28;94741;-51
2023/08/15 09:00:31;;;;;;;120.15;58.03;;;22.50;78.90;;;;;;4965589;28;95222;-51
2023/08/15 09:02:57;;;;;;;119.20;58.13;;;22.50;78.40;;;;;;4962926;28;98745;-53
2023/08/15 09:05:24;;;;;;;121.43;58.08;;;22.60;78.60;;;;;;4960638;28;95836;-52
2023/08/15 09:07:50;;;;;;;124.13;59.33;;;22.70;78.10;;;;;;4968148;28;96013;-51
2023/08/15 09:10:16;;;;;;;117.72;57.65;;;22.70;78.90;;;;;;4961581;28;96932;-52
2023/08/15 09:12:46;;;;;;;117.25;58.25;;;22.80;77.70;;;;;;4965701;28;96537;-49
2023/08/15 09:15:12;;;;;;;123.50;59.58;;;22.90;77.80;;;;;;4962604;28;96131;-53
2023/08/15 09:17:39;;;;;;;121.65;58.92;;;22.90;79.00;;;;;;4965551;28;96204;-53
2023/08/15 09:20:14;;;;;;;121.80;58.88;;;23.00;77.70;;;;;;4963731;28;96732;-50
2023/08/15 09:22:44;;;;;;;124.95;59.35;;;23.00;78.20;;;;;;4966853;28;98323;-52
2023/08/15 09:25:11;;;;;;;117.72;57.70;;;23.00;77.80;;;;;;4966489;28;94032;-50
2023/08/15 09:27:38;;;;;;;118.90;58.33;;;23.10;77.10;;;;;;4965617;28;95524;-52
2023/08/15 09:30:15;;;;;;;121.18;59.00;;;23.10;76.90;;;;;;4967295;28;97386;-51
2023/08/15 09:32:41;;;;;;;120.10;57.83;;;23.10;77.80;;;;;;4965954;28;97433;-52
2023/08/15 09:35:12;;;;;;;120.53;58.50;;;23.20;76.90;;;;;;4962729;28;95234;-53
2023/08/15 09:37:48;;;;;;;118.97;58.10;;;23.20;78.50;;;;;;4965256;28;96777;-53
2023/08/15 09:40:17;;;;;;;121.40;58.60;;;23.20;77.10;;;;;;4959813;28;94968;-53
2023/08/15 09:42:43;;;;;;;119.40;57.92;;;23.20;77.10;;;;;;4964155;28;95116;-53
2023/08/15 09:45:11;;;;;;;116.85;57.70;;;23.30;76.60;;;;;;4965092;28;95090;-54
2023/08/15 09:47:39;;;;;;;117.13;57.92;;;23.40;76.50;;;;;;4965672;28;95240;-53
2023/08/15 09:50:07;;;;;;;120.78;58.70;;;23.40;76.30;;;;;;4982203;28;94691;-53
2023/08/15 09:52:40;;;;;;;119.18;58.13;;;23.40;76.20;;;;;;4981153;28;96218;-52
2023/08/15 09:55:11;;;;;;;119.85;58.60;;;23.60;76.10;;;;;;4980063;28;96777;-53
2023/08/15 09:57:38;;;;;;;119.82;58.70;;;23.60;75.50;;;;;;4983451;28;96833;-52
2023/08/15 10:00:06;;;;;;;117.70;58.33;;;23.70;75.30;;;;;;4987253;28;97020;-52
2023/08/15 10:02:33;;;;;;;118.22;58.70;;;23.70;75.30;;;;;;4982119;28;95655;-51
2023/08/15 10:05:06;;;;;;;119.30;58.35;;;23.70;75.40;;;;;;4981558;28;95026;-53
2023/08/15 10:07:32;;;;;;;119.60;58.42;;;23.70;75.30;;;;;;4983885;28;96337;-51
2023/08/15 10:10:02;;;;;;;123.90;60.13;;;23.70;75.60;;;;;;4982395;28;95241;-52
2023/08/15 10:12:29;;;;;;;119.93;58.72;;;23.70;75.80;;;;;;4980563;28;99417;-52
2023/08/15 10:14:57;;;;;;;119.03;58.25;;;23.80;75.60;;;;;;4985404;28;96300;-52
2023/08/15 10:17:25;;;;;;;118.65;58.42;;;23.80;75.50;;;;;;4980648;28;95398;-53
2023/08/15 10:19:50;;;;;;;118.95;58.75;;;23.80;75.40;;;;;;4984250;28;97389;-50
2023/08/15 10:22:18;;;;;;;118.13;58.20;;;23.80;75.50;;;;;;4977269;28;98624;-53
2023/08/15 10:24:46;;;;;;;121.35;58.88;;;23.90;75.30;;;;;;4986152;28;95458;-52
2023/08/15 10:27:14;;;;;;;120.90;58.50;;;23.90;75.10;;;;;;4980449;28;95719;-49
2023/08/15 10:29:56;;;;;;;116.90;58.10;;;23.90;75.00;;;;;;4987514;28;98517;-50
2023/08/15 10:32:27;;;;;;;116.63;58.08;;;23.90;75.50;;;;;;4984120;28;94736;-53
2023/08/15 10:35:02;;;;;;;119.20;58.75;;;24.00;74.90;;;;;;4981592;28;94722;-51
2023/08/15 10:37:36;;;;;;;117.50;58.08;;;24.00;75.00;;;;;;4983459;28;97842;-52
2023/08/15 10:40:11;;;;;;;118.30;58.67;;;24.00;74.90;;;;;;4982803;28;96009;-53
2023/08/15 10:43:01;;;;;;;120.63;59.13;;;24.00;75.10;;;;;;4963220;28;98842;-53
2023/08/15 10:45:30;;;;;;;117.93;58.55;;;24.00;75.20;;;;;;4990593;28;98091;-51
2023/08/15 10:47:57;;;;;;;118.05;58.38;;;24.10;75.20;;;;;;4986069;28;96045;-54
2023/08/15 10:50:23;;;;;;;116.88;58.00;;;24.10;74.90;;;;;;4971244;28;96794;-51
2023/08/15 10:53:03;;;;;;;119.35;58.70;;;24.10;75.20;;;;;;4983126;28;97396;-53
2023/08/15 10:55:32;;;;;;;117.18;58.42;;;24.00;75.10;;;;;;4982706;28;97051;-51
2023/08/15 10:58:01;;;;;;;118.13;58.65;;;24.00;75.30;;;;;;4985507;28;100384;-53
2023/08/15 11:00:26;;;;;;;118.75;58.75;;;24.10;75.20;;;;;;4965784;28;97996;-53
2023/08/15 11:02:54;;;;;;;121.93;59.42;;;24.10;74.90;;;;;;4979124;28;96719;-52
2023/08/15 11:05:38;;;;;;;118.45;58.67;;;24.20;74.30;;;;;;4982199;28;93651;-52
2023/08/15 11:08:11;;;;;;;121.03;59.25;;;24.30;74.40;;;;;;4983856;28;97482;-52
2023/08/15 11:10:41;;;;;;;120.47;59.33;;;24.40;74.00;;;;;;4978004;28;98516;-51
2023/08/15 11:13:08;;;;;;;121.72;59.60;;;24.50;72.90;;;;;;4984114;28;97337;-53
2023/08/15 11:15:34;;;;;;;119.80;59.10;;;24.50;72.50;;;;;;4981166;28;94869;-53
2023/08/15 11:17:59;;;;;;;120.18;58.70;;;24.50;72.80;;;;;;4984052;28;96247;-51
2023/08/15 11:20:29;;;;;;;117.03;58.38;;;24.50;73.00;;;;;;4978236;28;97784;-52
2023/08/15 11:22:58;;;;;;;116.43;57.93;;;24.40;73.20;;;;;;4982432;28;95943;-53
2023/08/15 11:25:24;;;;;;;118.88;58.20;;;24.50;73.30;;;;;;4983323;28;96885;-52
2023/08/15 11:27:50;;;;;;;118.45;58.60;;;24.50;72.70;;;;;;4981667;28;94826;-49
2023/08/15 11:30:20;;;;;;;118.15;58.80;;;24.50;73.60;;;;;;4986239;28;94588;-52
2023/08/15 11:32:46;;;;;;;120.75;58.88;;;24.50;73.60;;;;;;4977474;28;95906;-51
2023/08/15 11:35:12;;;;;;;121.30;59.05;;;24.50;73.50;;;;;;4985632;28;95254;-53
2023/08/15 11:37:38;;;;;;;120.35;59.10;;;24.50;73.50;;;;;;4979790;28;95741;-52
2023/08/15 11:40:04;;;;;;;116.80;58.30;;;24.60;73.00;;;;;;4984014;28;97511;-53
2023/08/15 11:42:32;;;;;;;120.63;59.22;;;24.60;73.40;;;;;;4984565;28;94903;-50
2023/08/15 11:45:11;;;;;;;120.72;59.10;;;24.60;72.80;;;;;;4979844;28;96586;-53
2023/08/15 11:47:53;;;;;;;121.72;59.47;;;24.70;72.40;;;;;;4981290;28;96014;-52
2023/08/15 11:50:19;;;;;;;120.38;59.53;;;24.80;71.80;;;;;;4976948;28;97384;-53
2023/08/15 11:52:46;;;;;;;120.50;58.72;;;24.80;72.10;;;;;;4981769;28;94745;-53
2023/08/15 11:55:12;;;;;;;121.50;59.30;;;24.90;72.30;;;;;;4980554;28;94884;-52
2023/08/15 11:57:37;;;;;;;119.35;58.70;;;24.90;71.70;;;;;;4981458;28;96109;-52
2023/08/15 12:00:04;;;;;;;118.18;58.13;;;24.90;72.30;;;;;;4989382;28;95375;-51
2023/08/15 12:02:32;;;;;;;119.35;58.97;;;24.90;72.50;;;;;;4983726;28;96053;-50
2023/08/15 12:05:10;;;;;;;121.00;58.67;;;24.90;72.10;;;;;;4981130;28;96968;-51
2023/08/15 12:07:37;;;;;;;120.28;59.28;;;24.90;72.50;;;;;;4981374;28;98496;-51
2023/08/15 12:10:03;;;;;;;121.85;59.95;;;25.00;71.60;;;;;;4978210;28;95724;-52
2023/08/15 12:12:29;;;;;;;121.00;59.22;;;25.00;71.00;;;;;;4986268;28;96347;-53
2023/08/15 12:14:56;;;;;;;120.68;59.45;;;25.00;71.60;;;;;;4982661;28;95880;-52
2023/08/15 12:17:21;;;;;;;122.45;59.50;;;25.00;71.90;;;;;;4987235;28;96704;-52